Time;durP1;ratioP1;P1;durP2;ratioP2;P2;SDS_P1;SDS_P2;PMS_P1;PMS_P2;Temp;Humidity;BMP_temperature;BMP_pressure;BME280_temperature;BME280_humidity;BME280_pressure;Samples;Min_cycle;Max_cycle;Signal;HPM_P1;HPM_P2
2021/05/17 00:01:40;;;;;;;2.60;2.40;;;15.30;95.70;;;;;;5014565;28;20034;-56
2021/05/17 00:04:10;;;;;;;3.95;2.50;;;15.40;95.40;;;;;;5014690;28;20022;-50
2021/05/17 00:06:37;;;;;;;2.80;2.60;;;15.50;95.30;;;;;;5014258;28;20030;-55
2021/05/17 00:09:05;;;;;;;4.28;2.40;;;15.60;95.30;;;;;;5014307;28;20425;-55
2021/05/17 00:11:33;;;;;;;3.25;2.65;;;15.70;95.80;;;;;;5014303;28;20097;-54
2021/05/17 00:14:00;;;;;;;3.17;2.90;;;15.70;95.40;;;;;;5014538;28;20022;-56
2021/05/17 00:16:28;;;;;;;2.85;2.60;;;15.90;95.30;;;;;;4996563;28;20032;-53
2021/05/17 00:18:55;;;;;;;2.50;2.33;;;15.80;95.70;;;;;;5013997;28;20037;-55
2021/05/17 00:21:23;;;;;;;4.07;3.13;;;15.60;95.30;;;;;;5014006;28;20426;-55
2021/05/17 00:23:50;;;;;;;3.05;2.85;;;15.70;96.00;;;;;;5014224;28;20382;-58
2021/05/17 00:26:18;;;;;;;3.33;2.80;;;15.90;95.60;;;;;;5014218;28;20104;-57
2021/05/17 00:28:46;;;;;;;3.45;3.03;;;15.90;95.60;;;;;;5014091;28;20077;-57
2021/05/17 00:31:14;;;;;;;3.33;3.05;;;16.10;95.00;;;;;;5013853;28;20044;-58
2021/05/17 00:33:41;;;;;;;5.28;3.00;;;16.30;95.50;;;;;;5013846;28;20033;-53
2021/05/17 00:36:09;;;;;;;3.08;2.40;;;16.40;95.20;;;;;;5013891;28;20018;-50
2021/05/17 00:38:37;;;;;;;2.75;2.65;;;16.20;94.90;;;;;;5013870;28;20081;-53
2021/05/17 00:41:04;;;;;;;3.78;2.90;;;16.10;94.70;;;;;;5013821;28;20022;-55
2021/05/17 00:43:36;;;;;;;3.70;3.40;;;16.40;94.80;;;;;;5013822;28;20525;-52
2021/05/17 00:46:08;;;;;;;4.20;3.08;;;16.60;94.50;;;;;;5013514;28;20026;-54
2021/05/17 00:48:37;;;;;;;3.92;2.92;;;16.60;94.00;;;;;;5013605;28;20101;-54
2021/05/17 00:51:06;;;;;;;3.80;3.50;;;16.60;94.20;;;;;;4995955;28;20026;-51
2021/05/17 00:53:36;;;;;;;3.00;2.80;;;16.80;94.50;;;;;;4995828;28;20021;-52
2021/05/17 00:56:05;;;;;;;3.88;3.47;;;16.80;94.00;;;;;;5013532;28;20386;-49
2021/05/17 00:58:33;;;;;;;3.42;3.22;;;16.80;94.20;;;;;;5013392;28;20041;-52
2021/05/17 01:01:01;;;;;;;4.57;3.63;;;16.80;94.10;;;;;;5013444;28;20026;-53
2021/05/17 01:03:29;;;;;;;3.60;3.30;;;16.90;94.00;;;;;;5013422;28;20025;-49
2021/05/17 01:05:57;;;;;;;3.40;3.20;;;16.90;94.20;;;;;;5013434;28;20064;-53
2021/05/17 01:08:32;;;;;;;3.30;3.10;;;16.70;93.50;;;;;;5013319;28;20058;-48
2021/05/17 01:11:05;;;;;;;3.63;3.33;;;16.80;93.60;;;;;;5013564;28;20026;-49
2021/05/17 01:13:33;;;;;;;3.25;3.05;;;17.10;94.40;;;;;;5013145;28;20105;-53
2021/05/17 01:16:02;;;;;;;3.83;3.10;;;17.10;93.40;;;;;;5013010;28;20026;-53
2021/05/17 01:18:29;;;;;;;3.58;3.30;;;17.20;93.70;;;;;;5013280;28;20018;-53
2021/05/17 01:20:57;;;;;;;3.28;3.03;;;17.40;93.30;;;;;;5013023;28;20057;-50
2021/05/17 01:25:55;;;;;;;3.10;2.90;;;17.40;93.40;;;;;;5013161;28;20037;-51
2021/05/17 01:28:26;;;;;;;2.80;2.60;;;17.50;92.60;;;;;;5013182;28;20030;-51
2021/05/17 01:30:56;;;;;;;2.65;2.53;;;17.30;93.00;;;;;;5012898;28;20033;-48
2021/05/17 01:33:27;;;;;;;3.30;2.80;;;17.60;93.50;;;;;;5012892;28;20038;-53
2021/05/17 01:36:00;;;;;;;2.92;2.70;;;17.50;92.70;;;;;;5012936;28;20075;-51
2021/05/17 01:38:28;;;;;;;2.83;2.63;;;17.50;93.10;;;;;;5012855;28;20034;-50
2021/05/17 01:40:59;;;;;;;3.10;2.50;;;17.50;93.20;;;;;;5013014;28;20109;-53
2021/05/17 01:43:27;;;;;;;2.60;2.50;;;17.70;93.30;;;;;;5013311;28;20370;-49
2021/05/17 01:45:55;;;;;;;3.08;2.88;;;17.70;91.80;;;;;;5013018;28;20061;-50
2021/05/17 01:48:28;;;;;;;3.60;3.17;;;17.70;93.00;;;;;;5012958;28;20423;-52
2021/05/17 01:50:56;;;;;;;3.20;3.03;;;17.90;92.80;;;;;;5012991;28;20022;-50
2021/05/17 01:53:23;;;;;;;3.50;3.10;;;17.90;92.20;;;;;;5012918;28;20022;-49
2021/05/17 01:55:51;;;;;;;3.20;3.03;;;17.70;92.30;;;;;;5012949;28;20069;-53
2021/05/17 01:58:24;;;;;;;3.30;3.10;;;17.90;92.30;;;;;;5012618;28;20522;-53
2021/05/17 02:00:52;;;;;;;3.03;2.83;;;18.20;92.50;;;;;;5012847;28;20092;-53
2021/05/17 02:03:19;;;;;;;3.40;3.10;;;18.20;92.00;;;;;;5012686;28;20510;-52
2021/05/17 02:05:49;;;;;;;3.47;3.28;;;18.50;92.50;;;;;;5012661;28;20018;-55
2021/05/17 02:08:20;;;;;;;3.60;3.50;;;18.50;94.80;;;;;;5012714;28;20026;-57
2021/05/17 02:10:47;;;;;;;;;;;18.10;97.20;;;;;;5013162;28;20483;-54
2021/05/17 02:13:18;;;;;;;2.80;2.70;;;18.20;94.90;;;;;;5012587;28;19906;-50
2021/05/17 02:15:46;;;;;;;2.72;2.60;;;;;;;;;;5012534;28;20030;-53
2021/05/17 02:18:14;;;;;;;2.60;2.50;;;18.50;93.10;;;;;;5015491;28;20394;-57
2021/05/17 02:20:43;;;;;;;2.67;2.58;;;18.30;93.10;;;;;;5016188;28;20057;-50
2021/05/17 02:23:12;;;;;;;3.10;2.90;;;18.50;94.00;;;;;;5016227;28;20054;-51
2021/05/17 02:25:52;;;;;;;2.80;2.60;;;18.80;93.60;;;;;;5016225;28;20022;-54
2021/05/17 02:28:20;;;;;;;3.03;2.83;;;18.90;93.00;;;;;;5016227;28;20022;-51
2021/05/17 02:30:47;;;;;;;2.35;2.25;;;18.70;92.50;;;;;;5016042;28;20033;-50
2021/05/17 02:33:15;;;;;;;2.67;2.47;;;18.80;91.60;;;;;;4998268;28;20052;-52
2021/05/17 02:35:43;;;;;;;2.20;2.10;;;18.70;91.30;;;;;;5015963;28;20017;-53
2021/05/17 02:38:11;;;;;;;2.60;2.50;;;18.60;91.30;;;;;;5016043;28;20014;-55
2021/05/17 02:40:40;;;;;;;2.50;2.40;;;18.60;91.20;;;;;;5016086;28;20032;-52
2021/05/17 02:43:10;;;;;;;2.47;2.28;;;18.60;91.40;;;;;;5015788;28;20026;-50
2021/05/17 02:45:39;;;;;;;2.92;2.83;;;18.50;91.30;;;;;;5015894;28;20116;-52
2021/05/17 02:48:08;;;;;;;2.53;2.42;;;18.70;91.20;;;;;;5015810;28;20098;-54
2021/05/17 02:50:38;;;;;;;2.50;2.40;;;18.80;91.30;;;;;;5015704;28;20077;-48
2021/05/17 02:53:28;;;;;;;2.92;2.75;;;19.10;91.30;;;;;;5015920;28;20426;-49
2021/05/17 02:55:57;;;;;;;2.88;2.60;;;19.20;91.50;;;;;;5015795;28;20081;-49
2021/05/17 02:58:28;;;;;;;2.88;2.70;;;19.20;90.50;;;;;;5015711;28;20471;-50
2021/05/17 03:01:13;;;;;;;2.40;2.33;;;19.00;90.50;;;;;;5015730;28;20104;-54
2021/05/17 03:03:46;;;;;;;2.88;2.65;;;19.00;90.70;;;;;;5015655;28;20025;-51
2021/05/17 03:06:48;;;;;;;2.55;2.45;;;19.00;90.90;;;;;;5015844;28;20045;-50
2021/05/17 03:09:16;;;;;;;2.92;2.70;;;19.00;91.50;;;;;;5010378;28;20572;-52
2021/05/17 03:11:51;;;;;;;3.00;2.80;;;19.30;90.90;;;;;;4997905;28;20029;-52
2021/05/17 03:14:19;;;;;;;2.90;2.70;;;19.30;90.80;;;;;;5015162;28;20065;-53
2021/05/17 03:16:49;;;;;;;2.60;2.50;;;19.30;91.10;;;;;;5015309;28;20014;-51
2021/05/17 03:19:18;;;;;;;2.90;2.70;;;19.60;91.50;;;;;;5015272;28;20022;-49
2021/05/17 03:21:46;;;;;;;3.10;3.00;;;19.40;90.70;;;;;;5015159;28;20034;-51
2021/05/17 03:24:15;;;;;;;2.78;2.67;;;19.60;90.50;;;;;;5014925;28;20030;-50
2021/05/17 03:26:43;;;;;;;2.80;2.60;;;19.50;90.60;;;;;;5015195;28;20026;-52
2021/05/17 03:29:12;;;;;;;2.90;2.80;;;19.40;90.60;;;;;;5014035;28;20105;-51
2021/05/17 03:31:39;;;;;;;2.65;2.50;;;19.30;90.30;;;;;;5014823;28;20042;-51
2021/05/17 03:34:07;;;;;;;3.30;3.10;;;19.00;90.80;;;;;;5015308;28;20050;-53
2021/05/17 03:36:34;;;;;;;3.00;2.90;;;19.10;91.10;;;;;;4997556;28;20030;-49
2021/05/17 03:39:01;;;;;;;3.50;3.10;;;19.30;91.40;;;;;;5014872;28;20029;-48
2021/05/17 03:41:29;;;;;;;3.60;3.30;;;19.40;91.10;;;;;;5014880;28;20033;-47
2021/05/17 03:43:56;;;;;;;20.15;6.28;;;19.20;90.60;;;;;;5014738;28;20474;-50
2021/05/17 03:46:24;;;;;;;3.38;3.15;;;19.30;90.70;;;;;;5014818;28;20022;-48
2021/05/17 03:48:51;;;;;;;3.60;3.15;;;18.90;91.60;;;;;;5014467;28;20029;-52
2021/05/17 03:51:18;;;;;;;4.80;4.22;;;18.40;91.50;;;;;;5014492;28;20498;-52
2021/05/17 03:53:48;;;;;;;308.98;24.38;;;18.20;92.10;;;;;;5014949;28;20442;-51
2021/05/17 03:56:15;;;;;;;4.43;4.03;;;18.10;92.50;;;;;;5014561;28;20026;-48
2021/05/17 03:58:42;;;;;;;3.67;3.38;;;18.00;92.50;;;;;;5014242;28;20039;-49
2021/05/17 04:01:10;;;;;;;3.53;3.20;;;17.80;92.30;;;;;;5014462;28;20392;-52
2021/05/17 04:03:37;;;;;;;3.70;3.50;;;17.70;92.40;;;;;;5014090;28;20478;-53
2021/05/17 04:06:17;;;;;;;3.28;3.08;;;17.60;92.60;;;;;;5014328;28;20025;-47
2021/05/17 04:14:15;;;;;;;5.80;2.80;;;18.00;92.90;;;;;;5014441;28;20084;-56
2021/05/17 04:16:42;;;;;;;3.50;3.30;;;18.00;93.30;;;;;;5014182;28;20018;-54
2021/05/17 04:19:11;;;;;;;3.22;3.03;;;17.90;92.40;;;;;;5014135;28;20021;-49
2021/05/17 04:21:47;;;;;;;3.08;2.90;;;18.10;92.20;;;;;;5014048;28;20041;-51
2021/05/17 04:24:15;;;;;;;3.22;3.13;;;18.00;92.30;;;;;;5014260;28;20030;-49
2021/05/17 04:26:42;;;;;;;3.30;2.95;;;17.90;92.50;;;;;;5014209;28;20072;-49
2021/05/17 04:29:09;;;;;;;3.30;3.10;;;17.70;92.60;;;;;;5014121;28;20033;-54
2021/05/17 04:31:37;;;;;;;4.15;3.95;;;17.50;93.30;;;;;;5013826;28;20133;-54
2021/05/17 04:34:07;;;;;;;3.20;3.10;;;17.40;93.00;;;;;;5014106;28;20431;-51
2021/05/17 04:36:35;;;;;;;2.30;2.20;;;17.30;93.10;;;;;;5013807;28;20029;-52
2021/05/17 04:39:04;;;;;;;2.63;1.70;;;17.30;93.20;;;;;;5013797;28;20030;-54
2021/05/17 04:41:31;;;;;;;2.90;2.80;;;17.30;93.30;;;;;;5013423;28;20052;-55
2021/05/17 04:43:59;;;;;;;2.50;2.40;;;17.20;93.70;;;;;;5013552;28;20101;-50
2021/05/17 04:46:26;;;;;;;5.20;2.30;;;17.10;93.50;;;;;;5013636;28;20033;-51
2021/05/17 04:48:54;;;;;;;3.00;2.90;;;17.00;93.80;;;;;;5013554;28;20076;-51
2021/05/17 04:51:23;;;;;;;3.30;3.00;;;17.00;94.30;;;;;;4995877;28;20030;-50
2021/05/17 04:53:52;;;;;;;4.30;3.97;;;16.90;95.30;;;;;;5013667;28;20026;-56
2021/05/17 04:56:20;;;;;;;3.20;3.00;;;16.90;94.60;;;;;;5013658;28;20022;-51
2021/05/17 04:58:47;;;;;;;4.25;3.30;;;16.90;94.80;;;;;;5013535;28;20037;-56
2021/05/17 05:01:15;;;;;;;3.20;3.00;;;16.90;94.70;;;;;;5013411;28;20026;-51
2021/05/17 05:03:42;;;;;;;2.78;2.58;;;17.10;95.00;;;;;;5013476;28;20025;-56
2021/05/17 05:06:10;;;;;;;3.10;2.90;;;17.10;94.60;;;;;;5013378;28;20032;-52
2021/05/17 05:08:37;;;;;;;3.03;2.92;;;17.00;94.70;;;;;;5013471;28;20105;-52
2021/05/17 05:11:04;;;;;;;2.80;2.60;;;16.90;94.80;;;;;;5013289;28;20026;-54
2021/05/17 05:13:31;;;;;;;3.40;3.20;;;16.90;95.10;;;;;;5013337;28;20022;-54
2021/05/17 05:15:59;;;;;;;2.90;2.60;;;16.70;95.30;;;;;;5013418;28;20026;-57
2021/05/17 05:18:30;;;;;;;3.00;2.80;;;16.70;95.40;;;;;;5013322;28;20085;-54
2021/05/17 05:20:57;;;;;;;2.60;2.50;;;16.80;95.00;;;;;;5013162;28;20033;-51
2021/05/17 05:23:24;;;;;;;2.80;2.60;;;17.00;94.70;;;;;;5013309;28;20549;-56
2021/05/17 05:28:36;;;;;;;3.30;3.00;;;17.10;94.60;;;;;;5013227;28;20025;-55
2021/05/17 05:33:43;;;;;;;2.88;2.67;;;17.00;94.80;;;;;;5013280;28;20041;-57
2021/05/17 05:36:13;;;;;;;2.95;2.80;;;16.80;95.30;;;;;;5013164;28;20022;-54
2021/05/17 05:38:40;;;;;;;3.10;2.90;;;16.80;95.00;;;;;;5013224;28;20150;-57
2021/05/17 05:41:08;;;;;;;2.20;2.10;;;16.80;95.50;;;;;;4995465;28;20085;-56
2021/05/17 05:43:35;;;;;;;3.53;2.10;;;16.70;95.20;;;;;;5012920;28;20026;-53
2021/05/17 05:46:02;;;;;;;2.38;2.20;;;16.50;95.30;;;;;;5013118;28;20052;-54
2021/05/17 05:48:30;;;;;;;2.22;2.03;;;16.30;95.60;;;;;;5013031;28;20026;-54
2021/05/17 05:50:58;;;;;;;4.13;2.40;;;16.20;95.80;;;;;;5013016;28;20026;-57
2021/05/17 05:53:25;;;;;;;2.03;1.92;;;16.10;96.10;;;;;;5016482;28;20026;-55
2021/05/17 05:55:53;;;;;;;2.60;2.40;;;16.10;95.80;;;;;;5016712;28;20056;-56
2021/05/17 05:58:20;;;;;;;2.20;2.10;;;16.10;96.20;;;;;;5016930;28;20461;-57
2021/05/17 06:00:47;;;;;;;1.92;1.65;;;16.10;96.20;;;;;;5016794;28;20042;-56
2021/05/17 06:03:15;;;;;;;2.33;1.90;;;16.10;96.30;;;;;;5016680;28;20022;-54
2021/05/17 06:05:42;;;;;;;3.90;2.60;;;16.00;96.20;;;;;;5016536;28;20025;-53
2021/05/17 06:08:09;;;;;;;2.42;2.22;;;15.90;96.30;;;;;;5016577;28;20054;-53
2021/05/17 06:10:37;;;;;;;3.97;2.40;;;15.90;96.70;;;;;;5016260;28;20463;-52
2021/05/17 06:13:04;;;;;;;8.93;2.78;;;15.90;96.50;;;;;;5016415;28;20029;-57
2021/05/17 06:15:32;;;;;;;4.00;2.70;;;15.90;96.40;;;;;;5016453;28;20041;-56
2021/05/17 06:18:00;;;;;;;4.15;2.60;;;15.90;96.40;;;;;;5016466;28;20505;-57
2021/05/17 06:20:27;;;;;;;4.10;3.20;;;16.00;96.50;;;;;;5016381;28;20025;-55
2021/05/17 06:22:55;;;;;;;2.55;2.28;;;15.90;96.60;;;;;;5016225;28;20026;-53
2021/05/17 06:25:23;;;;;;;3.17;2.90;;;15.80;96.90;;;;;;5016326;28;20025;-53
2021/05/17 06:27:51;;;;;;;2.90;2.80;;;15.60;97.20;;;;;;5016336;28;20022;-57
2021/05/17 06:30:20;;;;;;;2.90;2.70;;;15.50;97.30;;;;;;5016209;28;20093;-49
2021/05/17 06:32:50;;;;;;;4.00;3.13;;;15.30;97.50;;;;;;5015840;28;20121;-55
2021/05/17 06:35:24;;;;;;;2.63;2.42;;;15.30;97.80;;;;;;5016169;28;20422;-52
2021/05/17 06:37:52;;;;;;;2.40;2.30;;;15.20;97.70;;;;;;5015818;28;20065;-50
2021/05/17 06:40:20;;;;;;;2.55;2.35;;;15.10;98.30;;;;;;4998345;28;20117;-55
2021/05/17 06:42:48;;;;;;;2.55;2.03;;;15.10;98.00;;;;;;5015997;28;20101;-54
2021/05/17 06:45:16;;;;;;;1.92;1.60;;;15.00;98.60;;;;;;5016019;28;20057;-56
2021/05/17 06:47:44;;;;;;;2.03;1.80;;;14.90;98.60;;;;;;5015906;28;20030;-57
2021/05/17 06:50:12;;;;;;;2.33;1.65;;;14.80;98.70;;;;;;5015707;28;20475;-56
2021/05/17 06:52:40;;;;;;;3.63;1.70;;;14.80;99.00;;;;;;5015895;28;20018;-55
2021/05/17 06:55:15;;;;;;;1.83;1.73;;;14.70;99.50;;;;;;5015636;28;20026;-57
2021/05/17 07:00:34;;;;;;;3.90;3.70;;;14.60;99.90;;;;;;5015855;28;20084;-53
2021/05/17 07:03:08;;;;;;;4.25;3.05;;;14.50;99.90;;;;;;5015582;28;20030;-53
2021/05/17 07:05:37;;;;;;;5.30;3.63;;;14.40;99.90;;;;;;5015723;28;20030;-51
2021/05/17 07:13:21;;;;;;;3.45;3.17;;;14.30;99.90;;;;;;5015747;28;20084;-56
2021/05/17 07:15:49;;;;;;;3.63;2.88;;;14.30;99.90;;;;;;4997818;28;20502;-56
2021/05/17 07:18:16;;;;;;;3.40;3.10;;;14.30;99.90;;;;;;5015270;28;20083;-51
2021/05/17 07:25:59;;;;;;;3.83;3.17;;;14.20;99.90;;;;;;5015605;28;20029;-49
2021/05/17 07:28:29;;;;;;;4.65;3.70;;;14.20;99.90;;;;;;5015243;28;20026;-52
2021/05/17 07:31:03;;;;;;;3.97;3.70;;;14.20;99.90;;;;;;5015083;28;20474;-55
2021/05/17 07:33:31;;;;;;;4.60;4.20;;;14.20;99.90;;;;;;4995605;28;20042;-52
2021/05/17 07:35:59;;;;;;;3.97;3.78;;;14.20;99.90;;;;;;4995552;28;20081;-53
2021/05/17 07:38:29;;;;;;;4.65;4.38;;;14.30;99.90;;;;;;4995396;28;20027;-52
2021/05/17 07:40:58;;;;;;;5.47;4.53;;;14.40;99.90;;;;;;4995258;28;20457;-51
2021/05/17 07:43:26;;;;;;;5.13;3.80;;;14.40;99.90;;;;;;4995219;28;20111;-53
2021/05/17 07:45:54;;;;;;;4.07;3.70;;;14.50;99.90;;;;;;4995171;28;20026;-50
2021/05/17 07:48:21;;;;;;;4.15;3.85;;;14.40;99.90;;;;;;4995043;28;20101;-52
2021/05/17 07:50:49;;;;;;;4.40;4.00;;;14.40;99.90;;;;;;4995362;28;20030;-53
2021/05/17 07:53:16;;;;;;;3.90;3.60;;;14.40;99.90;;;;;;4995169;28;20065;-57
2021/05/17 07:55:47;;;;;;;4.40;4.03;;;14.50;99.90;;;;;;4995165;28;20467;-57
2021/05/17 07:58:15;;;;;;;4.47;4.18;;;14.60;99.90;;;;;;4994892;28;20027;-52
2021/05/17 08:00:42;;;;;;;4.32;4.03;;;14.40;99.90;;;;;;4995062;28;20046;-51
2021/05/17 08:03:09;;;;;;;5.38;4.13;;;14.40;99.90;;;;;;4994995;28;20026;-50
2021/05/17 08:05:37;;;;;;;5.43;4.30;;;14.30;99.90;;;;;;4994895;28;20026;-51
2021/05/17 08:08:04;;;;;;;4.55;4.15;;;14.30;99.90;;;;;;4994815;28;20026;-51
2021/05/17 08:10:34;;;;;;;4.38;3.97;;;14.40;99.90;;;;;;4994998;28;20030;-55
2021/05/17 08:13:01;;;;;;;4.47;4.07;;;14.40;99.90;;;;;;4994758;28;20399;-51
2021/05/17 08:15:29;;;;;;;5.10;4.80;;;14.30;99.90;;;;;;4994380;28;20022;-53
2021/05/17 08:17:56;;;;;;;5.18;4.78;;;14.10;99.90;;;;;;4994755;28;20014;-54
2021/05/17 08:20:24;;;;;;;5.85;5.35;;;14.10;99.90;;;;;;4994778;28;20165;-54
2021/05/17 08:22:52;;;;;;;6.38;5.85;;;14.00;99.90;;;;;;4994566;28;20418;-56
2021/05/17 08:25:19;;;;;;;8.20;6.25;;;14.00;99.90;;;;;;4994738;28;20027;-55
2021/05/17 08:27:46;;;;;;;7.18;6.45;;;13.90;99.90;;;;;;4994481;28;20073;-55
2021/05/17 08:30:14;;;;;;;7.80;6.78;;;13.90;99.90;;;;;;4994439;28;20105;-54
2021/05/17 08:32:42;;;;;;;9.73;6.65;;;13.90;99.90;;;;;;5007331;28;20042;-53
2021/05/17 08:35:10;;;;;;;7.07;6.47;;;13.90;99.90;;;;;;5013925;28;20053;-55
2021/05/17 08:37:37;;;;;;;8.43;5.88;;;13.80;99.90;;;;;;4996621;28;20029;-52
2021/05/17 08:40:05;;;;;;;6.95;6.32;;;14.00;99.90;;;;;;5013944;28;20533;-50
2021/05/17 08:42:32;;;;;;;8.95;6.78;;;13.90;99.90;;;;;;5013864;28;20072;-53
2021/05/17 08:45:01;;;;;;;6.63;6.03;;;13.80;99.90;;;;;;5013992;28;20056;-57
2021/05/17 08:47:29;;;;;;;6.30;5.45;;;13.70;99.90;;;;;;5013855;28;20072;-56
2021/05/17 08:49:56;;;;;;;6.03;5.43;;;13.70;99.90;;;;;;5013544;28;20033;-54
2021/05/17 08:52:25;;;;;;;6.50;5.70;;;13.60;99.90;;;;;;5013470;28;20021;-53
2021/05/17 08:54:53;;;;;;;6.00;5.50;;;13.60;99.90;;;;;;5013599;28;20022;-57
2021/05/17 08:57:20;;;;;;;7.75;5.72;;;13.60;99.90;;;;;;5013724;28;20448;-54
2021/05/17 08:59:47;;;;;;;6.22;5.70;;;13.50;99.90;;;;;;5013546;28;20100;-52
2021/05/17 09:02:15;;;;;;;6.75;6.10;;;13.60;99.90;;;;;;5013520;28;20022;-54
2021/05/17 09:05:24;;;;;;;11.13;6.28;;;13.50;99.90;;;;;;5013595;28;20028;-53
2021/05/17 09:07:53;;;;;;;5.82;5.30;;;13.60;99.90;;;;;;5013584;28;20034;-53
2021/05/17 09:10:34;;;;;;;5.72;5.28;;;13.70;99.90;;;;;;5013099;28;20018;-53
2021/05/17 09:13:13;;;;;;;8.07;4.80;;;13.70;99.90;;;;;;5013591;28;20029;-55
2021/05/17 09:15:49;;;;;;;7.20;5.82;;;13.80;99.90;;;;;;5013326;28;20026;-52
2021/05/17 09:18:17;;;;;;;5.38;4.88;;;13.90;99.90;;;;;;5013264;28;20053;-56
2021/05/17 09:20:48;;;;;;;6.10;5.50;;;14.00;99.90;;;;;;5013110;28;20481;-55
2021/05/17 09:23:15;;;;;;;8.15;4.68;;;14.00;99.90;;;;;;5013265;28;20065;-56
2021/05/17 09:26:01;;;;;;;5.10;4.70;;;14.00;99.90;;;;;;4995078;28;20030;-54
2021/05/17 09:28:34;;;;;;;5.60;5.07;;;14.00;99.90;;;;;;5012911;28;20029;-57
2021/05/17 09:31:06;;;;;;;5.80;5.40;;;14.10;99.90;;;;;;5013247;28;20449;-55
2021/05/17 09:33:48;;;;;;;5.28;4.88;;;14.10;99.90;;;;;;5013043;28;20077;-55
2021/05/17 09:36:26;;;;;;;4.75;4.20;;;14.10;99.90;;;;;;5013087;28;20023;-54
2021/05/17 09:39:07;;;;;;;4.28;3.58;;;14.00;99.90;;;;;;5012874;28;20120;-55
2021/05/17 09:41:38;;;;;;;;;;;14.00;99.90;;;;;;5013214;28;20062;-54
2021/05/17 09:44:06;;;;;;;6.30;3.95;;;14.00;99.90;;;;;;5013274;28;19905;-51
2021/05/17 09:46:55;;;;;;;4.13;3.78;;;13.90;99.90;;;;;;5013141;28;20022;-55
2021/05/17 09:49:49;;;;;;;4.53;4.13;;;13.80;99.90;;;;;;5012712;28;20025;-53
2021/05/17 09:52:18;;;;;;;4.30;3.30;;;13.80;99.70;;;;;;5013176;28;20026;-55
2021/05/17 09:54:57;;;;;;;3.60;3.30;;;13.80;99.60;;;;;;5012987;28;20379;-56
2021/05/17 09:57:34;;;;;;;3.70;3.40;;;13.70;99.40;;;;;;5012708;28;20046;-55
2021/05/17 10:00:07;;;;;;;3.80;3.50;;;13.70;99.70;;;;;;5012662;28;20049;-53
2021/05/17 10:02:35;;;;;;;5.43;4.30;;;13.60;99.60;;;;;;5012736;28;20092;-56
2021/05/17 10:05:23;;;;;;;4.35;3.95;;;13.40;99.80;;;;;;5012782;28;20026;-52
2021/05/17 10:07:54;;;;;;;4.30;4.00;;;13.20;99.90;;;;;;5012928;28;20250;-54
2021/05/17 10:10:23;;;;;;;4.10;3.75;;;13.00;99.90;;;;;;5011258;28;20045;-57
2021/05/17 10:13:01;;;;;;;4.32;3.90;;;13.00;99.90;;;;;;5012509;28;20033;-57
2021/05/17 10:15:30;;;;;;;6.03;4.22;;;12.90;99.90;;;;;;5012427;28;20518;-56
2021/05/17 10:17:59;;;;;;;4.47;4.10;;;12.80;99.90;;;;;;5012572;28;20022;-55
2021/05/17 10:20:28;;;;;;;4.35;3.95;;;12.70;99.90;;;;;;5012464;28;20048;-56
2021/05/17 10:22:57;;;;;;;5.18;4.40;;;12.60;99.90;;;;;;5012414;28;20037;-55
2021/05/17 10:25:30;;;;;;;4.75;3.60;;;12.50;99.90;;;;;;5012621;28;20018;-56
2021/05/17 10:28:24;;;;;;;4.15;3.75;;;12.40;99.90;;;;;;4995352;28;20022;-51
2021/05/17 10:30:52;;;;;;;3.97;3.67;;;12.50;99.90;;;;;;5012425;28;20044;-55
2021/05/17 10:33:26;;;;;;;4.10;3.70;;;12.40;99.90;;;;;;5012374;28;20495;-56
2021/05/17 10:35:55;;;;;;;3.97;3.70;;;12.30;99.90;;;;;;5012372;28;20018;-55
2021/05/17 10:38:46;;;;;;;4.22;3.92;;;12.30;99.90;;;;;;4996575;28;20033;-57
2021/05/17 10:46:46;;;;;;;4.75;4.45;;;12.30;99.90;;;;;;5015877;28;20455;-53
2021/05/17 10:49:26;;;;;;;4.90;4.40;;;12.20;99.90;;;;;;5015501;28;20036;-54
2021/05/17 10:52:04;;;;;;;4.47;4.10;;;12.10;99.90;;;;;;5015663;28;20033;-52
2021/05/17 10:54:37;;;;;;;4.72;4.32;;;12.10;99.90;;;;;;4997992;28;20054;-52
2021/05/17 10:57:21;;;;;;;5.40;4.90;;;12.10;99.90;;;;;;4997910;28;20049;-54
2021/05/17 11:02:39;;;;;;;5.25;4.85;;;11.90;99.90;;;;;;5015845;28;20053;-51
2021/05/17 11:05:19;;;;;;;5.40;4.93;;;11.80;99.90;;;;;;5015451;28;20033;-55
2021/05/17 11:07:55;;;;;;;5.30;4.80;;;11.90;99.90;;;;;;5015505;28;20104;-54
2021/05/17 11:10:46;;;;;;;4.60;4.30;;;11.90;99.90;;;;;;5015397;28;20101;-52
2021/05/17 11:13:22;;;;;;;5.43;4.90;;;11.90;99.90;;;;;;5004965;28;20042;-56
2021/05/17 11:16:01;;;;;;;6.07;5.47;;;11.90;99.90;;;;;;5015249;28;20367;-49
2021/05/17 11:18:30;;;;;;;5.65;5.15;;;12.00;99.90;;;;;;5015122;28;20022;-51
2021/05/17 11:21:02;;;;;;;5.28;4.88;;;12.00;99.90;;;;;;5015072;28;20109;-52
2021/05/17 11:23:38;;;;;;;4.63;4.32;;;12.00;99.90;;;;;;5015007;28;20025;-49
2021/05/17 11:26:11;;;;;;;4.60;4.30;;;12.10;99.90;;;;;;4997470;28;20057;-51
2021/05/17 11:28:39;;;;;;;4.40;4.07;;;12.10;99.90;;;;;;4997349;28;20125;-49
2021/05/17 11:31:37;;;;;;;4.30;4.07;;;12.10;99.90;;;;;;5014524;28;20029;-52
2021/05/17 11:34:05;;;;;;;4.20;4.00;;;12.20;99.90;;;;;;5014810;28;20034;-52
2021/05/17 11:36:51;;;;;;;3.97;3.78;;;12.20;99.90;;;;;;5014777;28;20041;-50
2021/05/17 11:39:27;;;;;;;4.57;4.28;;;12.10;99.90;;;;;;5014822;28;20050;-50
2021/05/17 11:41:55;;;;;;;4.28;4.00;;;12.10;99.90;;;;;;5014661;28;20029;-53
2021/05/17 11:44:32;;;;;;;4.78;4.05;;;12.00;99.90;;;;;;5014692;28;20430;-52
2021/05/17 11:47:09;;;;;;;4.47;4.15;;;11.90;99.90;;;;;;5014856;28;20029;-51
2021/05/17 11:49:44;;;;;;;4.25;3.88;;;11.80;99.90;;;;;;5013759;28;20030;-51
2021/05/17 11:52:14;;;;;;;3.63;3.33;;;11.80;99.90;;;;;;5014584;28;20481;-49
2021/05/17 11:54:49;;;;;;;3.88;3.42;;;11.80;99.90;;;;;;5014788;28;20025;-50
2021/05/17 11:57:34;;;;;;;3.90;3.60;;;11.80;99.90;;;;;;5014602;28;20441;-50
2021/05/17 12:00:07;;;;;;;4.13;3.75;;;11.70;99.90;;;;;;5014483;28;20025;-52
2021/05/17 12:02:34;;;;;;;4.30;4.00;;;11.70;99.90;;;;;;5014386;28;20053;-53
2021/05/17 12:05:01;;;;;;;5.60;5.10;;;11.60;99.90;;;;;;5014334;28;20045;-51
2021/05/17 12:07:41;;;;;;;5.32;4.90;;;11.70;99.90;;;;;;5014355;28;20025;-52
2021/05/17 12:10:09;;;;;;;6.07;4.18;;;11.80;99.90;;;;;;5014285;28;20043;-49
2021/05/17 12:12:37;;;;;;;5.20;4.80;;;11.70;99.90;;;;;;5014322;28;20534;-57
2021/05/17 12:15:05;;;;;;;5.95;5.55;;;11.60;99.90;;;;;;5014364;28;20482;-54
2021/05/17 12:17:37;;;;;;;6.40;5.88;;;11.40;99.90;;;;;;5014031;28;20029;-53
2021/05/17 12:20:11;;;;;;;6.97;6.47;;;11.30;99.90;;;;;;4996338;28;20395;-50
2021/05/17 12:22:44;;;;;;;6.00;5.60;;;11.30;99.90;;;;;;5014070;28;20097;-49
2021/05/17 12:25:16;;;;;;;5.30;5.00;;;11.20;99.90;;;;;;5014222;28;20034;-50
2021/05/17 12:27:45;;;;;;;6.00;5.60;;;11.00;99.90;;;;;;5014043;28;20076;-52
2021/05/17 12:30:19;;;;;;;6.53;5.88;;;11.00;99.90;;;;;;5013798;28;20035;-50
2021/05/17 12:32:50;;;;;;;5.93;5.40;;;10.90;99.90;;;;;;5013721;28;20041;-56
2021/05/17 12:35:39;;;;;;;5.25;4.85;;;11.10;99.90;;;;;;5013793;28;20105;-52
2021/05/17 12:38:19;;;;;;;5.55;5.15;;;10.90;99.90;;;;;;5013857;28;20033;-52
2021/05/17 12:40:48;;;;;;;6.10;5.70;;;10.90;99.90;;;;;;5013539;28;20037;-50
2021/05/17 12:43:21;;;;;;;6.00;5.50;;;10.90;99.90;;;;;;5013729;28;20030;-49
2021/05/17 12:45:48;;;;;;;5.95;5.55;;;10.90;99.90;;;;;;5013424;28;20541;-53
2021/05/17 12:48:24;;;;;;;5.20;4.80;;;10.90;99.90;;;;;;5013602;28;20085;-54
2021/05/17 12:50:54;;;;;;;5.13;4.82;;;10.90;99.90;;;;;;5013614;28;20033;-51
2021/05/17 12:53:28;;;;;;;4.93;4.63;;;11.00;99.90;;;;;;4996178;28;20022;-51
2021/05/17 12:56:01;;;;;;;5.28;4.93;;;10.90;99.90;;;;;;5013508;28;20141;-51
2021/05/17 12:58:40;;;;;;;5.57;5.20;;;10.80;99.90;;;;;;4995759;28;20044;-53
2021/05/17 13:01:20;;;;;;;5.10;4.70;;;10.80;99.90;;;;;;5013181;28;20030;-51
2021/05/17 13:03:57;;;;;;;4.70;4.30;;;10.90;99.90;;;;;;5013228;28;20088;-55
2021/05/17 13:06:30;;;;;;;4.72;4.43;;;11.00;99.90;;;;;;5013544;28;20037;-51
2021/05/17 13:09:20;;;;;;;4.60;4.30;;;11.10;99.90;;;;;;5013092;28;20062;-53
2021/05/17 13:11:55;;;;;;;4.90;4.60;;;11.10;99.90;;;;;;5013219;28;20367;-53
2021/05/17 13:14:23;;;;;;;4.65;4.30;;;11.20;99.90;;;;;;5013194;28;20026;-52
2021/05/17 13:16:54;;;;;;;4.30;4.00;;;11.30;99.90;;;;;;5013021;28;20026;-50
2021/05/17 13:30:59;;;;;;;4.35;4.00;;;11.20;99.90;;;;;;5012872;28;20033;-51
2021/05/17 13:33:32;;;;;;;3.60;3.35;;;11.20;99.90;;;;;;5013020;28;20057;-51
2021/05/17 13:36:10;;;;;;;3.90;3.60;;;11.20;99.90;;;;;;5013346;28;20022;-50
2021/05/17 13:38:40;;;;;;;4.28;3.90;;;11.20;99.90;;;;;;5013281;28;20077;-53
2021/05/17 13:41:08;;;;;;;4.70;4.40;;;11.20;99.90;;;;;;5013314;28;20097;-50
2021/05/17 13:43:37;;;;;;;4.25;4.05;;;11.30;99.90;;;;;;5012985;28;20038;-52
2021/05/17 13:46:06;;;;;;;5.07;4.57;;;11.20;99.90;;;;;;5013079;28;20030;-52
2021/05/17 13:48:47;;;;;;;4.40;4.20;;;11.20;99.90;;;;;;5013116;28;20021;-50
2021/05/17 13:51:16;;;;;;;4.50;4.20;;;11.10;99.90;;;;;;5012872;28;20030;-53
2021/05/17 13:53:43;;;;;;;4.63;4.22;;;11.10;99.90;;;;;;5013004;28;20041;-56